TNCM/SXM METAR and TAF weather

Enter ICAO airport designator
Station Type Date Time Source
TNCM METAR 2020/01/20 18:00 UTC NOAA

TNCM 201800Z 09009KT 070V130 9999 FEW016 27/21 Q1016 NOSIG RMK SHRA SE S W


Station Type Date Time Source
TNCM Decoded METAR 2020/01/20 18:00 UTC NOAA

Juliana Airport, Saint Maarten, Netherlands Antilles (TNCM) 18-03N 063-07W 9M
Jan 20, 2020 - 01:00 PM EST / 2020.01.20 1800 UTC
Wind: from the E (090 degrees) at 10 MPH (9 KT) (direction variable):0
Visibility: greater than 7 mile(s):0
Sky conditions: mostly clear
Temperature: 80 F (27 C)
Dew Point: 69 F (21 C)
Relative Humidity: 69%
Pressure (altimeter): 30.00 in. Hg (1016 hPa)
ob: TNCM 201800Z 09009KT 070V130 9999 FEW016 27/21 Q1016 NOSIG RMK SHRA SE S W
cycle: 18

Station Type Date Time Source
TNCM TAF 2020/01/20 12:58 UTC NOAA

TAF TNCM 201157Z 2012/2112 09012KT 6SM -SHRA SCT016 BKN030
FM201400 11012KT P6SM -RA SCT020 BKN035
FM202000 13007KT P6SM SCT020 BKN050

Example: see airport list